Date,TemperatureHighF,TemperatureAvgF,TemperatureLowF,DewpointHighF,DewpointAvgF,DewpointLowF,HumidityHigh,HumidityAvg,HumidityLow,PressureMaxIn,PressureMinIn,WindSpeedMaxMPH,WindSpeedAvgMPH,GustSpeedMaxMPH,PrecipitationSumIn
2013-12-1,0,0,0,0,0,0,0,0,100,30.18,29.79,0,0,0,0.00
2013-12-2,0,0,0,0,0,0,0,0,100,29.79,29.60,0,0,0,0.00
2013-12-3,0,0,0,0,0,0,0,0,100,29.89,29.71,0,0,0,0.00
2013-12-4,0,0,0,0,0,0,0,0,100,29.87,29.67,0,0,0,0.00
2013-12-5,0,0,0,0,0,0,0,0,100,30.25,29.72,0,0,0,0.00
2013-12-6,0,0,0,0,0,0,0,0,100,30.53,30.25,0,0,0,0.00
2013-12-7,0,0,0,0,0,0,0,0,100,30.53,30.38,0,0,0,0.00
2013-12-8,0,0,0,0,0,0,0,0,100,30.38,29.93,0,0,0,0.00
2013-12-9,0,0,0,0,0,0,0,0,100,29.97,29.74,0,0,0,0.00
2013-12-10,0,0,0,0,0,0,0,0,100,30.31,29.79,0,0,0,0.00
2013-12-11,0,0,0,0,0,0,0,0,100,30.40,30.12,0,0,0,0.00
2013-12-12,0,0,0,0,0,0,0,0,100,30.23,30.12,0,0,0,0.00
2013-12-13,0,0,0,0,0,0,0,0,100,30.36,30.23,0,0,0,0.00
2013-12-14,0,0,0,0,0,0,0,0,100,30.32,30.13,0,0,0,0.00
2013-12-15,0,0,0,0,0,0,0,0,100,30.18,29.91,0,0,0,0.00
2013-12-16,0,0,0,0,0,0,0,0,100,29.91,29.70,0,0,0,0.00
2013-12-17,0,0,0,0,0,0,0,0,100,30.05,29.77,0,0,0,0.00
2013-12-18,0,0,0,0,0,0,0,0,100,30.01,29.50,0,0,0,0.00
2013-12-19,0,0,0,0,0,0,0,0,100,30.24,30.01,0,0,0,0.00
2013-12-20,0,0,0,0,0,0,0,0,100,30.14,29.78,0,0,0,0.00
2013-12-21,0,0,0,0,0,0,0,0,100,30.16,29.80,0,0,0,0.00
2013-12-22,0,0,0,0,0,0,0,0,100,30.43,30.13,0,0,0,0.00
2013-12-23,0,0,0,0,0,0,0,0,100,30.55,30.30,0,0,0,0.00
2013-12-24,0,0,0,0,0,0,0,0,100,30.29,29.90,0,0,0,0.00
2013-12-25,0,0,0,0,0,0,0,0,100,30.10,29.89,0,0,0,0.00
2013-12-26,0,0,0,0,0,0,0,0,100,30.03,29.92,0,0,0,0.00
2013-12-27,0,0,0,0,0,0,0,0,100,29.92,29.67,0,0,0,0.00
2013-12-28,0,0,0,0,0,0,0,0,100,30.42,29.68,0,0,0,0.00
2013-12-29,0,0,0,0,0,0,0,0,100,30.45,30.12,0,0,0,0.00
2013-12-30,0,0,0,0,0,0,0,0,100,30.22,30.08,0,0,0,0.00
2013-12-31,0,0,0,0,0,0,0,0,100,30.42,30.16,0,0,0,0.00